Time,TemperatureF,DewpointF,PressureIn,WindDirection,WindDirectionDegrees,WindSpeedMPH,WindSpeedGustMPH,Humidity,HourlyPrecipIn,Conditions,Clouds,dailyrainin,SoftwareType,DateUTC
2013-05-12 00:01:00,-999.0,-99.9,29.73,North,-999,-999.0,-999.0,-999,0.00,,,0.00,weatherlink.com 1.10,2013-05-12 04:01:00,
2013-05-12 00:16:00,-999.0,-99.9,29.72,North,-999,-999.0,-999.0,-999,0.00,,,0.00,weatherlink.com 1.10,2013-05-12 04:16:00,
2013-05-12 00:32:00,-999.0,-99.9,29.72,North,-999,-999.0,-999.0,-999,0.00,,,0.00,weatherlink.com 1.10,2013-05-12 04:32:00,
2013-05-12 00:47:00,-999.0,-99.9,29.73,North,-999,-999.0,-999.0,-999,0.00,,,0.00,weatherlink.com 1.10,2013-05-12 04:47:00,
2013-05-12 01:02:00,-999.0,-99.9,29.72,North,-999,-999.0,-999.0,-999,0.00,,,0.00,weatherlink.com 1.10,2013-05-12 05:02:00,
2013-05-12 01:17:00,-999.0,-99.9,29.72,North,-999,-999.0,-999.0,-999,0.00,,,0.00,weatherlink.com 1.10,2013-05-12 05:17:00,
2013-05-12 01:32:00,-999.0,-99.9,29.72,North,-999,-999.0,-999.0,-999,0.00,,,0.00,weatherlink.com 1.10,2013-05-12 05:32:00,
2013-05-12 01:47:00,-999.0,-99.9,29.72,North,-999,-999.0,-999.0,-999,0.00,,,0.00,weatherlink.com 1.10,2013-05-12 05:47:00,
2013-05-12 02:02:00,-999.0,-99.9,29.72,North,-999,-999.0,-999.0,-999,0.00,,,0.00,weatherlink.com 1.10,2013-05-12 06:02:00,
2013-05-12 02:17:00,-999.0,-99.9,29.71,North,-999,-999.0,-999.0,-999,0.00,,,0.00,weatherlink.com 1.10,2013-05-12 06:17:00,
2013-05-12 02:32:00,-999.0,-99.9,29.72,North,-999,-999.0,-999.0,-999,0.00,,,0.00,weatherlink.com 1.10,2013-05-12 06:32:00,
2013-05-12 02:47:00,-999.0,-99.9,29.72,North,-999,-999.0,-999.0,-999,0.00,,,0.00,weatherlink.com 1.10,2013-05-12 06:47:00,
2013-05-12 03:02:00,-999.0,-99.9,29.71,North,-999,-999.0,-999.0,-999,0.00,,,0.00,weatherlink.com 1.10,2013-05-12 07:02:00,
2013-05-12 03:17:00,-999.0,-99.9,29.71,North,-999,-999.0,-999.0,-999,0.00,,,0.00,weatherlink.com 1.10,2013-05-12 07:17:00,
2013-05-12 03:32:00,-999.0,-99.9,29.70,North,-999,-999.0,-999.0,-999,0.00,,,0.00,weatherlink.com 1.10,2013-05-12 07:32:00,
2013-05-12 03:47:00,-999.0,-99.9,29.69,North,-999,-999.0,-999.0,-999,0.00,,,0.00,weatherlink.com 1.10,2013-05-12 07:47:00,
2013-05-12 04:03:00,-999.0,-99.9,29.69,North,-999,-999.0,-999.0,-999,0.00,,,0.00,weatherlink.com 1.10,2013-05-12 08:03:00,
2013-05-12 04:18:00,-999.0,-99.9,29.71,North,-999,-999.0,-999.0,-999,0.00,,,0.00,weatherlink.com 1.10,2013-05-12 08:18:00,
2013-05-12 04:33:00,-999.0,-99.9,29.70,North,-999,-999.0,-999.0,-999,0.00,,,0.00,weatherlink.com 1.10,2013-05-12 08:33:00,
2013-05-12 04:48:00,-999.0,-99.9,29.70,North,-999,-999.0,-999.0,-999,0.00,,,0.00,weatherlink.com 1.10,2013-05-12 08:48:00,
2013-05-12 05:03:00,-999.0,-99.9,29.70,North,-999,-999.0,-999.0,-999,0.00,,,0.00,weatherlink.com 1.10,2013-05-12 09:03:00,
2013-05-12 05:18:00,-999.0,-99.9,29.71,North,-999,-999.0,-999.0,-999,0.00,,,0.00,weatherlink.com 1.10,2013-05-12 09:18:00,
2013-05-12 05:33:00,-999.0,-99.9,29.70,North,-999,-999.0,-999.0,-999,0.00,,,0.00,weatherlink.com 1.10,2013-05-12 09:33:00,
2013-05-12 05:48:00,-999.0,-99.9,29.70,North,-999,-999.0,-999.0,-999,0.00,,,0.00,weatherlink.com 1.10,2013-05-12 09:48:00,
2013-05-12 06:03:00,-999.0,-99.9,29.70,North,-999,-999.0,-999.0,-999,0.00,,,0.00,weatherlink.com 1.10,2013-05-12 10:03:00,
2013-05-12 06:18:00,-999.0,-99.9,29.71,North,-999,-999.0,-999.0,-999,0.00,,,0.00,weatherlink.com 1.10,2013-05-12 10:18:00,
2013-05-12 06:33:00,-999.0,-99.9,29.71,North,-999,-999.0,-999.0,-999,0.00,,,0.00,weatherlink.com 1.10,2013-05-12 10:33:00,
2013-05-12 06:48:00,50.8,47.0,29.71,North,-999,0.0,1.0,88,0.00,,,0.00,weatherlink.com 1.10,2013-05-12 10:48:00,
2013-05-12 07:03:00,51.4,47.0,29.71,North,-999,0.0,1.0,86,0.00,,,0.00,weatherlink.com 1.10,2013-05-12 11:03:00,
2013-05-12 07:19:00,51.3,48.0,29.71,North,-999,0.0,1.0,87,0.00,,,0.00,weatherlink.com 1.10,2013-05-12 11:19:00,
2013-05-12 07:34:00,51.4,48.0,29.70,North,-999,0.0,1.0,87,0.00,,,0.00,weatherlink.com 1.10,2013-05-12 11:34:00,
2013-05-12 07:49:00,53.4,49.0,29.70,North,-999,0.0,3.0,84,0.00,,,0.00,weatherlink.com 1.10,2013-05-12 11:49:00,
2013-05-12 08:04:00,53.7,48.0,29.69,North,-999,0.0,2.0,82,0.00,,,0.00,weatherlink.com 1.10,2013-05-12 12:04:00,
2013-05-12 08:19:00,54.2,48.0,29.70,North,-999,1.0,4.0,80,0.00,,,0.00,weatherlink.com 1.10,2013-05-12 12:19:00,
2013-05-12 08:34:00,55.6,49.0,29.69,North,-999,2.0,3.0,77,0.00,,,0.00,weatherlink.com 1.10,2013-05-12 12:34:00,
2013-05-12 08:49:00,57.0,49.0,29.69,North,-999,0.0,3.0,75,0.00,,,0.00,weatherlink.com 1.10,2013-05-12 12:49:00,
2013-05-12 09:04:00,57.5,49.0,29.69,North,-999,2.0,3.0,73,0.00,,,0.00,weatherlink.com 1.10,2013-05-12 13:04:00,
2013-05-12 09:19:00,57.9,49.0,29.68,North,-999,0.0,2.0,71,0.00,,,0.00,weatherlink.com 1.10,2013-05-12 13:19:00,
2013-05-12 09:34:00,58.4,47.0,29.68,North,-999,6.0,9.0,67,0.00,,,0.00,weatherlink.com 1.10,2013-05-12 13:34:00,
2013-05-12 09:49:00,57.8,47.0,29.68,North,-999,1.0,5.0,68,0.00,,,0.00,weatherlink.com 1.10,2013-05-12 13:49:00,
2013-05-12 10:04:00,58.4,47.0,29.68,North,-999,3.0,6.0,65,0.00,,,0.00,weatherlink.com 1.10,2013-05-12 14:04:00,
2013-05-12 10:19:00,54.2,45.0,29.69,North,-999,10.0,17.0,70,0.00,,,0.00,weatherlink.com 1.10,2013-05-12 14:19:00,
2013-05-12 10:34:00,51.1,43.0,29.70,North,-999,7.0,15.0,74,0.00,,,0.00,weatherlink.com 1.10,2013-05-12 14:34:00,
2013-05-12 10:49:00,49.9,42.0,29.71,North,-999,9.0,14.0,75,0.00,,,0.00,weatherlink.com 1.10,2013-05-12 14:49:00,
2013-05-12 11:04:00,49.7,42.0,29.71,North,-999,9.0,14.0,74,0.00,,,0.00,weatherlink.com 1.10,2013-05-12 15:04:00,
2013-05-12 11:19:00,48.6,41.0,29.72,North,-999,14.0,18.0,74,0.00,,,0.00,weatherlink.com 1.10,2013-05-12 15:19:00,
2013-05-12 11:34:00,47.6,40.0,29.72,North,-999,11.0,17.0,74,0.00,,,0.00,weatherlink.com 1.10,2013-05-12 15:34:00,
2013-05-12 11:49:00,48.4,39.0,29.72,North,-999,18.0,20.0,70,0.00,,,0.00,weatherlink.com 1.10,2013-05-12 15:49:00,
2013-05-12 12:04:00,48.5,39.0,29.72,North,-999,7.0,17.0,70,0.00,,,0.00,weatherlink.com 1.10,2013-05-12 16:04:00,
2013-05-12 12:19:00,48.7,40.0,29.71,North,-999,5.0,18.0,71,0.00,,,0.00,weatherlink.com 1.10,2013-05-12 16:19:00,
2013-05-12 12:34:00,49.7,39.0,29.72,North,-999,4.0,20.0,68,0.00,,,0.00,weatherlink.com 1.10,2013-05-12 16:34:00,
2013-05-12 12:49:00,50.9,40.0,29.72,North,-999,8.0,17.0,66,0.00,,,0.00,weatherlink.com 1.10,2013-05-12 16:49:00,
2013-05-12 13:04:00,51.9,39.0,29.72,North,-999,10.0,16.0,61,0.00,,,0.00,weatherlink.com 1.10,2013-05-12 17:04:00,
2013-05-12 13:19:00,53.1,39.0,29.73,North,-999,9.0,19.0,59,0.00,,,0.00,weatherlink.com 1.10,2013-05-12 17:19:00,
2013-05-12 13:34:00,54.9,40.0,29.72,North,-999,5.0,20.0,57,0.00,,,0.00,weatherlink.com 1.10,2013-05-12 17:34:00,
2013-05-12 13:50:00,56.2,38.0,29.72,North,-999,4.0,15.0,51,0.00,,,0.00,weatherlink.com 1.10,2013-05-12 17:50:00,
2013-05-12 14:05:00,57.7,40.0,29.72,North,-999,2.0,11.0,52,0.00,,,0.00,weatherlink.com 1.10,2013-05-12 18:05:00,
2013-05-12 14:20:00,59.0,35.0,29.71,North,-999,7.0,11.0,40,0.00,,,0.00,weatherlink.com 1.10,2013-05-12 18:20:00,
2013-05-12 14:35:00,59.4,34.0,29.71,North,-999,5.0,15.0,38,0.00,,,0.00,weatherlink.com 1.10,2013-05-12 18:35:00,
2013-05-12 14:50:00,59.2,32.0,29.71,North,-999,9.0,15.0,36,0.00,,,0.00,weatherlink.com 1.10,2013-05-12 18:50:00,
2013-05-12 15:05:00,58.9,33.0,29.71,North,-999,5.0,18.0,38,0.00,,,0.00,weatherlink.com 1.10,2013-05-12 19:05:00,
2013-05-12 15:20:00,59.6,32.0,29.71,North,-999,6.0,12.0,36,0.00,,,0.00,weatherlink.com 1.10,2013-05-12 19:20:00,
2013-05-12 15:35:00,59.2,32.0,29.72,North,-999,7.0,16.0,36,0.00,,,0.00,weatherlink.com 1.10,2013-05-12 19:35:00,
2013-05-12 15:50:00,59.0,30.0,29.72,North,-999,7.0,18.0,34,0.00,,,0.00,weatherlink.com 1.10,2013-05-12 19:50:00,
2013-05-12 16:05:00,58.8,31.0,29.72,North,-999,4.0,15.0,35,0.00,,,0.00,weatherlink.com 1.10,2013-05-12 20:05:00,
2013-05-12 16:20:00,58.3,28.0,29.73,North,-999,6.0,16.0,31,0.00,,,0.00,weatherlink.com 1.10,2013-05-12 20:20:00,
2013-05-12 16:35:00,59.3,27.0,29.73,North,-999,8.0,12.0,29,0.00,,,0.00,weatherlink.com 1.10,2013-05-12 20:35:00,
2013-05-12 16:50:00,59.1,27.0,29.73,North,-999,14.0,14.0,29,0.00,,,0.00,weatherlink.com 1.10,2013-05-12 20:50:00,
2013-05-12 17:05:00,58.6,25.0,29.74,North,-999,8.0,13.0,27,0.00,,,0.00,weatherlink.com 1.10,2013-05-12 21:05:00,
2013-05-12 17:20:00,57.5,24.0,29.74,North,-999,7.0,14.0,28,0.00,,,0.00,weatherlink.com 1.10,2013-05-12 21:20:00,
2013-05-12 17:35:00,57.9,25.0,29.74,North,-999,7.0,14.0,28,0.00,,,0.00,weatherlink.com 1.10,2013-05-12 21:35:00,
2013-05-12 17:50:00,56.9,26.0,29.74,North,-999,9.0,13.0,30,0.00,,,0.00,weatherlink.com 1.10,2013-05-12 21:50:00,
2013-05-12 18:05:00,56.5,28.0,29.74,North,-999,7.0,13.0,33,0.00,,,0.00,weatherlink.com 1.10,2013-05-12 22:05:00,
2013-05-12 18:20:00,56.2,27.0,29.75,North,-999,6.0,17.0,33,0.00,,,0.00,weatherlink.com 1.10,2013-05-12 22:20:00,
2013-05-12 18:35:00,56.1,28.0,29.76,North,-999,8.0,18.0,34,0.00,,,0.00,weatherlink.com 1.10,2013-05-12 22:35:00,
2013-05-12 18:50:00,55.4,28.0,29.77,North,-999,12.0,18.0,35,0.00,,,0.00,weatherlink.com 1.10,2013-05-12 22:50:00,
2013-05-12 19:05:00,54.7,28.0,29.78,North,-999,8.0,11.0,36,0.00,,,0.00,weatherlink.com 1.10,2013-05-12 23:05:00,
2013-05-12 19:20:00,54.2,27.0,29.78,North,-999,2.0,10.0,35,0.00,,,0.00,weatherlink.com 1.10,2013-05-12 23:20:00,
2013-05-12 19:35:00,53.5,27.0,29.79,North,-999,3.0,13.0,36,0.00,,,0.00,weatherlink.com 1.10,2013-05-12 23:35:00,
2013-05-12 19:50:00,54.1,28.0,29.79,North,-999,6.0,11.0,37,0.00,,,0.00,weatherlink.com 1.10,2013-05-12 23:50:00,
2013-05-12 20:05:00,-999.0,-99.9,29.80,North,-999,-999.0,-999.0,-999,0.00,,,0.00,weatherlink.com 1.10,2013-05-13 00:05:00,
2013-05-12 20:20:00,-999.0,-99.9,29.81,North,-999,-999.0,-999.0,-999,0.00,,,0.00,weatherlink.com 1.10,2013-05-13 00:20:00,
2013-05-12 20:35:00,-999.0,-99.9,29.82,North,-999,-999.0,-999.0,-999,0.00,,,0.00,weatherlink.com 1.10,2013-05-13 00:35:00,
2013-05-12 20:50:00,-999.0,-99.9,29.84,North,-999,-999.0,-999.0,-999,0.00,,,0.00,weatherlink.com 1.10,2013-05-13 00:50:00,
2013-05-12 21:05:00,-999.0,-99.9,29.84,North,-999,-999.0,-999.0,-999,0.00,,,0.00,weatherlink.com 1.10,2013-05-13 01:05:00,
2013-05-12 21:21:00,-999.0,-99.9,29.85,North,-999,-999.0,-999.0,-999,0.00,,,0.00,weatherlink.com 1.10,2013-05-13 01:21:00,
2013-05-12 21:36:00,-999.0,-99.9,29.85,North,-999,-999.0,-999.0,-999,0.00,,,0.00,weatherlink.com 1.10,2013-05-13 01:36:00,
2013-05-12 21:51:00,-999.0,-99.9,29.85,North,-999,-999.0,-999.0,-999,0.00,,,0.00,weatherlink.com 1.10,2013-05-13 01:51:00,
2013-05-12 22:06:00,-999.0,-99.9,29.86,North,-999,-999.0,-999.0,-999,0.00,,,0.00,weatherlink.com 1.10,2013-05-13 02:06:00,
2013-05-12 22:21:00,-999.0,-99.9,29.86,North,-999,-999.0,-999.0,-999,0.00,,,0.00,weatherlink.com 1.10,2013-05-13 02:21:00,
2013-05-12 22:36:00,-999.0,-99.9,29.87,North,-999,-999.0,-999.0,-999,0.00,,,0.00,weatherlink.com 1.10,2013-05-13 02:36:00,
2013-05-12 22:51:00,-999.0,-99.9,29.87,North,-999,-999.0,-999.0,-999,0.00,,,0.00,weatherlink.com 1.10,2013-05-13 02:51:00,
2013-05-12 23:06:00,-999.0,-99.9,29.88,North,-999,-999.0,-999.0,-999,0.00,,,0.00,weatherlink.com 1.10,2013-05-13 03:06:00,
2013-05-12 23:21:00,-999.0,-99.9,29.88,North,-999,-999.0,-999.0,-999,0.00,,,0.00,weatherlink.com 1.10,2013-05-13 03:21:00,
2013-05-12 23:36:00,-999.0,-99.9,29.88,North,-999,-999.0,-999.0,-999,0.00,,,0.00,weatherlink.com 1.10,2013-05-13 03:36:00,
2013-05-12 23:51:00,-999.0,-99.9,29.88,North,-999,-999.0,-999.0,-999,0.00,,,0.00,weatherlink.com 1.10,2013-05-13 03:51:00,